Time;durP1;ratioP1;P1;durP2;ratioP2;P2;SDS_P1;SDS_P2;PMS_P1;PMS_P2;Temp;Humidity;BMP_temperature;BMP_pressure;BME280_temperature;BME280_humidity;BME280_pressure;Samples;Min_cycle;Max_cycle;Signal;HPM_P1;HPM_P2
2022/01/01 00:00:17;;;;;;;2.57;2.37;;;;;;;;;;5068207;28;20250;-74
2022/01/01 00:03:04;;;;;;;3.10;2.90;;;;;;;;;;5069264;28;20224;-74
2022/01/01 00:05:51;;;;;;;2.77;2.57;;;;;;;;;;5068268;28;20243;-74
2022/01/01 00:08:37;;;;;;;2.80;2.60;;;;;;;;;;5066611;28;20217;-75
2022/01/01 00:11:26;;;;;;;2.27;2.17;;;;;;;;;;5068019;28;20209;-75
2022/01/01 00:14:13;;;;;;;2.80;2.60;;;;;;;;;;5067202;28;20347;-73
2022/01/01 00:17:01;;;;;;;2.30;2.20;;;;;;;;;;5068413;28;20296;-74
2022/01/01 00:19:48;;;;;;;2.50;2.40;;;;;;;;;;5068737;28;20614;-75
2022/01/01 00:22:34;;;;;;;2.70;2.50;;;;;;;;;;5068696;28;20898;-73
2022/01/01 00:25:21;;;;;;;2.23;2.13;;;;;;;;;;5069084;28;20205;-74
2022/01/01 00:28:10;;;;;;;2.40;2.20;;;;;;;;;;5067129;28;20236;-74
2022/01/01 00:30:57;;;;;;;2.20;2.10;;;;;;;;;;5068816;28;20219;-74
2022/01/01 00:33:44;;;;;;;2.27;2.17;;;;;;;;;;5068636;28;20209;-74
2022/01/01 00:36:31;;;;;;;2.17;2.00;;;;;;;;;;5067331;28;20296;-74
2022/01/01 00:39:18;;;;;;;1.87;1.77;;;;;;;;;;5068184;28;20287;-74
2022/01/01 00:42:06;;;;;;;2.80;2.13;;;;;;;;;;5066864;28;20366;-74
2022/01/01 00:44:54;;;;;;;2.00;1.80;;;;;;;;;;5067712;28;20296;-74
2022/01/01 00:47:41;;;;;;;2.17;2.07;;;;;;;;;;5067766;28;20201;-74
2022/01/01 00:50:28;;;;;;;2.20;2.00;;;;;;;;;;5065377;28;20244;-75
2022/01/01 00:53:15;;;;;;;1.97;1.87;;;;;;;;;;5068778;28;20972;-74
2022/01/01 00:56:02;;;;;;;1.80;1.70;;;;;;;;;;5066778;28;20559;-75
2022/01/01 00:58:48;;;;;;;2.17;1.97;;;;;;;;;;5068231;28;20686;-74
2022/01/01 01:01:38;;;;;;;2.07;1.97;;;;;;;;;;5067564;28;20558;-74
2022/01/01 01:04:25;;;;;;;1.90;1.80;;;;;;;;;;5066492;28;20224;-72
2022/01/01 01:07:12;;;;;;;2.00;1.90;;;;;;;;;;5065680;28;20692;-74
2022/01/01 01:09:59;;;;;;;1.93;1.80;;;;;;;;;;5064788;28;20207;-75
2022/01/01 01:12:48;;;;;;;1.60;1.50;;;;;;;;;;5066344;28;20280;-74
2022/01/01 01:15:35;;;;;;;1.70;1.53;;;;;;;;;;5067647;28;20204;-74
2022/01/01 01:18:24;;;;;;;1.77;1.67;;;;;;;;;;5065931;28;20357;-74
2022/01/01 01:21:10;;;;;;;1.80;1.70;;;;;;;;;;5067674;28;20224;-74
2022/01/01 01:23:58;;;;;;;1.27;1.27;;;;;;;;;;5067520;28;20269;-73
2022/01/01 01:26:48;;;;;;;1.37;1.27;;;;;;;;;;5066765;28;20223;-74
2022/01/01 01:29:41;;;;;;;2.00;1.90;;;;;;;;;;5068355;28;20207;-74
2022/01/01 01:32:28;;;;;;;2.03;1.93;;;;;;;;;;5066750;28;20527;-75
2022/01/01 01:35:16;;;;;;;1.63;1.53;;;;;;;;;;5067625;28;21066;-74
2022/01/01 01:38:04;;;;;;;1.70;1.60;;;;;;;;;;5067043;28;20746;-74
2022/01/01 01:40:51;;;;;;;1.40;1.30;;;;;;;;;;5066968;28;20270;-74
2022/01/01 01:43:38;;;;;;;1.60;1.50;;;;;;;;;;5066270;28;20228;-74
2022/01/01 01:46:26;;;;;;;1.70;1.60;;;;;;;;;;5066530;28;20216;-74
2022/01/01 01:49:13;;;;;;;1.60;1.50;;;;;;;;;;5065451;28;20355;-75
2022/01/01 01:52:02;;;;;;;2.10;1.90;;;;;;;;;;5067143;28;20280;-74
2022/01/01 01:54:49;;;;;;;1.60;1.50;;;;;;;;;;5066431;28;20208;-74
2022/01/01 01:57:39;;;;;;;1.70;1.60;;;;;;;;;;5067378;28;20346;-75
2022/01/01 02:01:06;;;;;;;1.70;1.60;;;;;;;;;;5066652;28;20214;-74
2022/01/01 02:03:56;;;;;;;1.80;1.70;;;;;;;;;;5064315;28;20231;-74
2022/01/01 02:06:44;;;;;;;1.60;1.50;;;;;;;;;;5068514;28;20318;-75
2022/01/01 02:09:32;;;;;;;1.57;1.47;;;;;;;;;;5065776;28;20213;-74
2022/01/01 02:12:21;;;;;;;1.90;1.80;;;;;;;;;;5065887;28;20209;-74
2022/01/01 02:15:14;;;;;;;1.80;1.70;;;;;;;;;;5071714;28;20656;-75
2022/01/01 02:18:01;;;;;;;1.43;1.33;;;;;;;;;;5068600;28;20676;-75
2022/01/01 02:20:50;;;;;;;1.67;1.57;;;;;;;;;;5071205;28;20251;-75
2022/01/01 02:23:41;;;;;;;1.93;1.77;;;;;;;;;;5071787;28;20229;-75
2022/01/01 02:26:31;;;;;;;1.60;1.50;;;;;;;;;;5069700;28;20212;-74
2022/01/01 02:29:18;;;;;;;1.60;1.50;;;;;;;;;;5068996;28;20223;-74
2022/01/01 02:32:09;;;;;;;2.03;1.67;;;;;;;;;;5071274;28;20802;-75
2022/01/01 02:34:56;;;;;;;1.70;1.60;;;;;;;;;;5070334;28;20266;-73
2022/01/01 02:37:45;;;;;;;1.80;1.70;;;;;;;;;;5071224;28;20204;-75
2022/01/01 02:40:32;;;;;;;1.43;1.33;;;;;;;;;;5070072;28;20220;-74
2022/01/01 02:43:19;;;;;;;1.73;1.63;;;;;;;;;;5069218;28;20345;-74
2022/01/01 02:46:06;;;;;;;1.63;1.53;;;;;;;;;;5068463;28;20219;-74
2022/01/01 02:48:53;;;;;;;1.60;1.50;;;;;;;;;;5070278;28;20282;-74
2022/01/01 02:51:40;;;;;;;1.70;1.60;;;;;;;;;;5071030;28;20302;-75
2022/01/01 02:54:28;;;;;;;1.50;1.40;;;;;;;;;;5070637;28;20254;-74
2022/01/01 02:57:16;;;;;;;1.57;1.47;;;;;;;;;;5070489;28;20235;-74
2022/01/01 03:00:05;;;;;;;1.70;1.53;;;;;;;;;;5071148;28;20229;-74
2022/01/01 03:02:52;;;;;;;1.67;1.57;;;;;;;;;;5069363;28;20236;-74
2022/01/01 03:05:39;;;;;;;1.77;1.67;;;;;;;;;;5069764;28;20290;-73
2022/01/01 03:08:26;;;;;;;1.53;1.43;;;;;;;;;;5067352;28;20240;-73
2022/01/01 03:11:14;;;;;;;2.23;1.73;;;;;;;;;;5060905;28;20213;-76
2022/01/01 03:14:01;;;;;;;1.73;1.40;;;;;;;;;;5069616;28;20675;-75
2022/01/01 03:16:49;;;;;;;1.70;1.60;;;;;;;;;;5069147;28;20281;-74
2022/01/01 03:19:36;;;;;;;1.47;1.37;;;;;;;;;;5059927;28;20677;-73
2022/01/01 03:22:23;;;;;;;1.27;1.20;;;;;;;;;;5068753;28;20539;-74
2022/01/01 03:25:10;;;;;;;1.57;1.47;;;;;;;;;;5069840;28;20205;-74
2022/01/01 03:27:58;;;;;;;1.50;1.40;;;;;;;;;;5069825;28;20231;-75
2022/01/01 03:30:45;;;;;;;1.50;1.40;;;;;;;;;;5067603;28;20586;-75
2022/01/01 03:33:32;;;;;;;1.53;1.43;;;;;;;;;;5069140;28;20330;-73
2022/01/01 03:36:19;;;;;;;1.43;1.33;;;;;;;;;;5070080;28;20294;-74
2022/01/01 03:39:07;;;;;;;1.30;1.20;;;;;;;;;;5068725;28;20203;-74
2022/01/01 03:41:54;;;;;;;1.97;1.40;;;;;;;;;;5067687;28;20676;-75
2022/01/01 03:44:42;;;;;;;1.37;1.27;;;;;;;;;;5067459;28;20224;-74
2022/01/01 03:47:30;;;;;;;1.10;1.10;;;;;;;;;;5070094;28;20292;-70
2022/01/01 03:50:17;;;;;;;1.30;1.20;;;;;;;;;;5070115;28;20216;-73
2022/01/01 03:53:04;;;;;;;1.20;1.10;;;;;;;;;;5069440;28;20614;-74
2022/01/01 03:55:51;;;;;;;1.30;1.20;;;;;;;;;;5070212;28;20207;-74
2022/01/01 03:58:38;;;;;;;1.33;1.23;;;;;;;;;;5068526;28;20684;-74
2022/01/01 04:01:27;;;;;;;1.37;1.27;;;;;;;;;;5069034;28;20228;-75
2022/01/01 04:04:14;;;;;;;1.30;1.20;;;;;;;;;;5069542;28;20244;-73
2022/01/01 04:07:02;;;;;;;2.40;1.40;;;;;;;;;;5067879;28;20289;-75
2022/01/01 04:09:49;;;;;;;1.73;1.47;;;;;;;;;;5066870;28;20695;-74
2022/01/01 04:12:36;;;;;;;1.20;1.10;;;;;;;;;;5067845;28;21005;-75
2022/01/01 04:15:23;;;;;;;1.63;1.17;;;;;;;;;;5069153;28;20240;-75
2022/01/01 04:18:13;;;;;;;1.20;1.10;;;;;;;;;;5069082;28;20213;-75
2022/01/01 04:21:00;;;;;;;1.43;1.33;;;;;;;;;;5068574;28;20298;-75
2022/01/01 04:23:47;;;;;;;1.33;1.23;;;;;;;;;;5069921;28;20233;-74
2022/01/01 04:26:34;;;;;;;0.90;0.90;;;;;;;;;;5069853;28;20208;-74
2022/01/01 04:29:23;;;;;;;1.37;1.27;;;;;;;;;;5063777;28;20317;-74
2022/01/01 04:32:13;;;;;;;1.33;1.23;;;;;;;;;;5068869;28;20206;-75
2022/01/01 04:35:02;;;;;;;1.30;1.20;;;;;;;;;;5067175;28;20685;-75
2022/01/01 04:37:49;;;;;;;1.77;1.20;;;;;;;;;;5069528;28;20689;-74
2022/01/01 04:40:36;;;;;;;0.90;0.90;;;;;;;;;;5069117;28;20245;-74
2022/01/01 04:43:23;;;;;;;1.07;1.07;;;;;;;;;;5067207;28;20314;-75
2022/01/01 04:46:11;;;;;;;0.93;0.93;;;;;;;;;;5069451;28;20725;-74
2022/01/01 04:48:58;;;;;;;1.57;1.10;;;;;;;;;;5067519;28;20349;-75
2022/01/01 04:51:47;;;;;;;0.97;0.97;;;;;;;;;;5068078;28;21566;-73
2022/01/01 04:54:37;;;;;;;1.30;1.20;;;;;;;;;;5069407;28;20217;-75
2022/01/01 04:57:29;;;;;;;1.60;1.50;;;;;;;;;;5065536;28;20259;-75
2022/01/01 05:00:17;;;;;;;1.03;1.03;;;;;;;;;;5069063;28;20240;-74
2022/01/01 05:03:04;;;;;;;1.20;1.10;;;;;;;;;;5066869;28;20498;-75
2022/01/01 05:05:51;;;;;;;1.17;0.93;;;;;;;;;;5068413;28;20692;-74
2022/01/01 05:08:39;;;;;;;0.93;0.93;;;;;;;;;;5066978;28;20330;-74
2022/01/01 05:11:27;;;;;;;1.70;1.03;;;;;;;;;;5067681;28;20675;-74
2022/01/01 05:14:15;;;;;;;1.00;1.00;;;;;;;;;;5058274;28;20250;-74
2022/01/01 05:17:03;;;;;;;1.30;1.20;;;;;;;;;;5067852;28;20208;-75
2022/01/01 05:19:50;;;;;;;1.37;1.20;;;;;;;;;;5067981;28;20681;-75
2022/01/01 05:22:37;;;;;;;1.23;1.00;;;;;;;;;;5069045;28;20292;-74
2022/01/01 05:25:25;;;;;;;0.87;0.87;;;;;;;;;;5066135;28;20209;-75
2022/01/01 05:28:12;;;;;;;1.23;1.13;;;;;;;;;;5058672;28;20683;-74
2022/01/01 05:30:59;;;;;;;1.00;0.90;;;;;;;;;;5067570;28;20214;-75
2022/01/01 05:33:46;;;;;;;1.03;0.93;;;;;;;;;;5067868;28;20261;-75
2022/01/01 05:36:34;;;;;;;1.20;1.00;;;;;;;;;;5052952;28;20266;-75
2022/01/01 05:39:20;;;;;;;1.10;1.00;;;;;;;;;;5066948;28;20338;-75
2022/01/01 05:42:09;;;;;;;1.10;1.00;;;;;;;;;;5066585;28;20219;-75
2022/01/01 05:44:56;;;;;;;1.20;0.90;;;;;;;;;;5068718;28;20231;-74
2022/01/01 05:47:43;;;;;;;0.83;0.83;;;;;;;;;;5069590;28;20261;-75
2022/01/01 05:50:30;;;;;;;1.20;1.10;;;;;;;;;;5070563;28;20675;-74
2022/01/01 05:53:19;;;;;;;1.20;1.20;;;;;;;;;;5071972;28;20270;-74
2022/01/01 05:56:06;;;;;;;0.83;0.83;;;;;;;;;;5071849;28;20683;-74
2022/01/01 05:58:54;;;;;;;1.53;0.80;;;;;;;;;;5072642;28;20235;-75
2022/01/01 06:01:41;;;;;;;0.90;0.90;;;;;;;;;;5070769;28;20706;-75
2022/01/01 06:04:28;;;;;;;0.70;0.70;;;;;;;;;;5071953;28;20248;-75
2022/01/01 06:07:15;;;;;;;1.00;0.80;;;;;;;;;;5071117;28;20259;-75
2022/01/01 06:10:03;;;;;;;1.00;1.00;;;;;;;;;;5068143;28;20630;-75
2022/01/01 06:12:50;;;;;;;0.93;0.93;;;;;;;;;;5071953;28;20277;-72
2022/01/01 06:15:38;;;;;;;1.10;1.03;;;;;;;;;;5071252;28;20223;-73
2022/01/01 06:18:25;;;;;;;0.93;0.93;;;;;;;;;;5072317;28;20211;-75
2022/01/01 06:21:12;;;;;;;0.80;0.80;;;;;;;;;;5071136;28;20293;-74
2022/01/01 06:23:59;;;;;;;0.80;0.80;;;;;;;;;;5070635;28;20262;-74
2022/01/01 06:26:46;;;;;;;0.90;0.90;;;;;;;;;;5063106;28;20220;-74
2022/01/01 06:29:33;;;;;;;0.90;0.90;;;;;;;;;;5071203;28;20245;-75
2022/01/01 06:32:21;;;;;;;0.73;0.73;;;;;;;;;;5070474;28;20293;-75
2022/01/01 06:35:08;;;;;;;0.83;0.83;;;;;;;;;;5070741;28;20291;-74
2022/01/01 06:37:55;;;;;;;0.90;0.63;;;;;;;;;;5069984;28;20216;-74
2022/01/01 06:40:43;;;;;;;1.13;0.90;;;;;;;;;;5071185;28;20220;-74
2022/01/01 06:43:30;;;;;;;0.80;0.80;;;;;;;;;;5071007;28;20232;-74
2022/01/01 06:46:17;;;;;;;0.80;0.80;;;;;;;;;;5068940;28;20350;-73
2022/01/01 06:49:05;;;;;;;0.90;0.90;;;;;;;;;;5070256;28;20273;-72
2022/01/01 06:51:52;;;;;;;0.77;0.77;;;;;;;;;;5069989;28;20244;-74
2022/01/01 06:54:39;;;;;;;0.77;0.77;;;;;;;;;;5071629;28;20278;-74
2022/01/01 06:57:26;;;;;;;0.67;0.67;;;;;;;;;;5069093;28;20199;-74
2022/01/01 07:00:15;;;;;;;0.70;0.60;;;;;;;;;;5070118;28;20614;-74
2022/01/01 07:03:02;;;;;;;0.90;0.80;;;;;;;;;;5071028;28;20204;-74
2022/01/01 07:05:50;;;;;;;1.00;1.00;;;;;;;;;;5069676;28;20742;-74
2022/01/01 07:08:37;;;;;;;0.90;0.90;;;;;;;;;;5059737;28;20385;-74
2022/01/01 07:11:24;;;;;;;0.80;0.80;;;;;;;;;;5069211;28;20860;-74
2022/01/01 07:14:11;;;;;;;1.10;1.03;;;;;;;;;;5070115;28;20208;-75
2022/01/01 07:16:58;;;;;;;0.83;0.83;;;;;;;;;;5070042;28;20216;-73
2022/01/01 07:19:45;;;;;;;0.87;0.80;;;;;;;;;;5071125;28;20224;-74
2022/01/01 07:22:38;;;;;;;0.70;0.70;;;;;;;;;;5070422;28;20215;-74
2022/01/01 07:25:25;;;;;;;0.80;0.80;;;;;;;;;;5062265;28;20630;-75
2022/01/01 07:28:14;;;;;;;1.57;1.10;;;;;;;;;;5068622;28;20215;-75
2022/01/01 07:31:01;;;;;;;0.90;0.73;;;;;;;;;;5069844;28;20299;-74
2022/01/01 07:33:48;;;;;;;1.07;0.90;;;;;;;;;;5069729;28;20294;-74
2022/01/01 07:36:35;;;;;;;1.00;0.87;;;;;;;;;;5068281;28;20284;-75
2022/01/01 07:39:23;;;;;;;2.00;0.93;;;;;;;;;;5069129;28;20239;-75
2022/01/01 07:42:12;;;;;;;1.10;0.97;;;;;;;;;;5069402;28;20244;-74
2022/01/01 07:45:00;;;;;;;0.93;0.83;;;;;;;;;;5069432;28;20231;-74
2022/01/01 07:47:47;;;;;;;0.90;0.73;;;;;;;;;;5069118;28;20212;-74
2022/01/01 07:50:34;;;;;;;1.07;0.73;;;;;;;;;;5068921;28;20213;-75
2022/01/01 07:53:21;;;;;;;1.33;0.90;;;;;;;;;;5070866;28;20295;-74
2022/01/01 07:56:09;;;;;;;0.80;0.70;;;;;;;;;;5067549;28;20196;-74
2022/01/01 07:58:56;;;;;;;0.93;0.73;;;;;;;;;;5067850;28;20334;-71
2022/01/01 08:01:44;;;;;;;0.70;0.70;;;;;;;;;;5069821;28;20304;-74
2022/01/01 08:04:31;;;;;;;1.37;1.10;;;;;;;;;;5066832;28;20229;-74
2022/01/01 08:07:18;;;;;;;1.13;1.00;;;;;;;;;;5063502;28;20326;-75
2022/01/01 08:10:05;;;;;;;1.00;0.90;;;;;;;;;;5067909;28;20251;-75
2022/01/01 08:12:54;;;;;;;1.43;1.00;;;;;;;;;;5068313;28;20300;-74
2022/01/01 08:15:41;;;;;;;1.00;0.90;;;;;;;;;;5069827;28;20208;-74
2022/01/01 08:18:29;;;;;;;0.70;0.70;;;;;;;;;;5068178;28;20554;-73
2022/01/01 08:21:16;;;;;;;1.40;1.10;;;;;;;;;;5069145;28;20213;-74
2022/01/01 08:24:03;;;;;;;1.27;1.17;;;;;;;;;;5069401;28;20242;-74
2022/01/01 08:26:51;;;;;;;1.37;1.23;;;;;;;;;;5068792;28;20217;-74
2022/01/01 08:29:39;;;;;;;0.90;0.80;;;;;;;;;;5069968;28;20769;-74
2022/01/01 08:32:26;;;;;;;0.87;0.87;;;;;;;;;;5068477;28;20615;-74
2022/01/01 08:35:13;;;;;;;1.00;0.90;;;;;;;;;;5068971;28;20280;-74
2022/01/01 08:38:03;;;;;;;0.80;0.80;;;;;;;;;;5069520;28;20338;-75
2022/01/01 08:40:50;;;;;;;1.10;1.00;;;;;;;;;;5069135;28;20700;-72
2022/01/01 08:43:38;;;;;;;1.67;0.93;;;;;;;;;;5068814;28;20294;-75
2022/01/01 08:46:26;;;;;;;0.70;0.70;;;;;;;;;;5067765;28;20212;-75
2022/01/01 08:49:13;;;;;;;1.13;1.03;;;;;;;;;;5067614;28;20245;-74
2022/01/01 08:52:00;;;;;;;1.10;1.10;;;;;;;;;;5068021;28;20265;-75
2022/01/01 08:54:47;;;;;;;1.37;1.27;;;;;;;;;;5067641;28;20212;-75
2022/01/01 08:57:34;;;;;;;1.33;1.10;;;;;;;;;;5062848;28;20693;-75
2022/01/01 09:00:22;;;;;;;1.50;1.40;;;;;;;;;;5067417;28;20209;-75
2022/01/01 09:03:10;;;;;;;1.43;1.00;;;;;;;;;;5068229;28;20429;-74
2022/01/01 09:05:57;;;;;;;1.30;1.20;;;;;;;;;;5068014;28;20237;-74
2022/01/01 09:08:44;;;;;;;1.20;1.10;;;;;;;;;;5064360;28;20558;-72
2022/01/01 09:11:31;;;;;;;1.37;1.20;;;;;;;;;;5061661;28;20277;-74
2022/01/01 09:14:18;;;;;;;1.10;1.00;;;;;;;;;;5068784;28;20349;-74
2022/01/01 09:17:07;;;;;;;1.30;1.20;;;;;;;;;;5067593;28;20212;-73
2022/01/01 09:19:55;;;;;;;1.30;1.20;;;;;;;;;;5070055;28;20213;-74
2022/01/01 09:22:42;;;;;;;1.40;1.27;;;;;;;;;;5066078;28;20208;-74
2022/01/01 09:25:29;;;;;;;1.40;1.30;;;;;;;;;;5066986;28;20369;-72
2022/01/01 09:28:16;;;;;;;1.20;1.10;;;;;;;;;;5067213;28;20206;-75
2022/01/01 09:31:03;;;;;;;1.50;1.40;;;;;;;;;;5066140;28;20211;-73
2022/01/01 09:33:50;;;;;;;1.50;1.40;;;;;;;;;;5068132;28;20203;-75
2022/01/01 09:36:39;;;;;;;1.80;1.70;;;;;;;;;;5066831;28;20277;-74
2022/01/01 09:39:26;;;;;;;1.93;1.40;;;;;;;;;;5067925;28;20652;-75
2022/01/01 09:42:13;;;;;;;1.70;1.60;;;;;;;;;;5067626;28;20747;-74
2022/01/01 09:45:00;;;;;;;2.20;1.87;;;;;;;;;;5066551;28;20252;-72
2022/01/01 09:47:48;;;;;;;1.50;1.40;;;;;;;;;;5068732;28;20698;-75
2022/01/01 09:50:35;;;;;;;1.33;1.30;;;;;;;;;;5067532;28;20213;-75
2022/01/01 09:53:25;;;;;;;1.63;1.53;;;;;;;;;;5068234;28;20209;-74
2022/01/01 09:56:12;;;;;;;1.90;1.80;;;;;;;;;;5066016;28;20275;-75
2022/01/01 09:58:59;;;;;;;2.00;1.87;;;;;;;;;;5064594;28;20240;-74
2022/01/01 10:01:46;;;;;;;2.13;1.93;;;;;;;;;;5067593;28;20248;-75
2022/01/01 10:04:42;;;;;;;1.80;1.70;;;;;;;;;;5066771;28;20326;-74
2022/01/01 10:07:29;;;;;;;2.40;2.20;;;;;;;;;;5062653;28;20258;-74
2022/01/01 10:10:20;;;;;;;2.23;2.03;;;;;;;;;;5066612;28;20679;-74
2022/01/01 10:13:11;;;;;;;2.00;1.90;;;;;;;;;;5066274;28;20758;-74
2022/01/01 10:16:00;;;;;;;2.37;1.87;;;;;;;;;;5064863;28;20216;-74
2022/01/01 10:18:50;;;;;;;2.10;2.00;;;;;;;;;;5067733;28;20211;-75
2022/01/01 10:21:41;;;;;;;2.20;2.10;;;;;;;;;;5066302;28;20209;-75
2022/01/01 10:24:40;;;;;;;1.80;1.70;;;;;;;;;;5063306;28;20676;-74
2022/01/01 10:27:45;;;;;;;2.07;1.90;;;;;;;;;;5065809;28;20200;-73
2022/01/01 10:30:35;;;;;;;1.60;1.50;;;;;;;;;;5066343;28;20680;-75
2022/01/01 10:33:23;;;;;;;1.83;1.73;;;;;;;;;;5065816;28;20621;-75
2022/01/01 10:36:10;;;;;;;2.00;1.90;;;;;;;;;;5069129;28;20208;-73
2022/01/01 10:39:08;;;;;;;1.80;1.70;;;;;;;;;;5063324;28;20216;-76
2022/01/01 10:41:58;;;;;;;2.00;1.83;;;;;;;;;;5068076;28;20301;-74
2022/01/01 10:44:50;;;;;;;2.33;2.10;;;;;;;;;;5070053;28;20217;-74
2022/01/01 10:47:38;;;;;;;2.10;2.00;;;;;;;;;;5069558;28;20295;-75
2022/01/01 10:50:32;;;;;;;1.90;1.80;;;;;;;;;;5070512;28;20261;-74
2022/01/01 10:53:24;;;;;;;1.60;1.50;;;;;;;;;;5070217;28;20247;-74
2022/01/01 10:56:17;;;;;;;1.70;1.60;;;;;;;;;;5055199;28;20299;-74
2022/01/01 10:59:05;;;;;;;1.80;1.70;;;;;;;;;;5069415;28;20355;-74
2022/01/01 11:01:58;;;;;;;1.80;1.70;;;;;;;;;;5070655;28;20689;-74
2022/01/01 11:04:45;;;;;;;1.63;1.53;;;;;;;;;;5070367;28;20351;-74
2022/01/01 11:07:32;;;;;;;2.13;2.03;;;;;;;;;;5066912;28;20239;-75
2022/01/01 11:10:20;;;;;;;1.90;1.80;;;;;;;;;;5069744;28;20212;-75
2022/01/01 11:13:09;;;;;;;2.60;2.40;;;;;;;;;;5069825;28;20229;-74
2022/01/01 11:15:56;;;;;;;2.57;1.90;;;;;;;;;;5068969;28;20223;-75
2022/01/01 11:18:46;;;;;;;2.23;2.13;;;;;;;;;;5070699;28;20287;-75
2022/01/01 11:21:33;;;;;;;1.97;1.83;;;;;;;;;;5069104;28;20300;-75
2022/01/01 11:24:20;;;;;;;3.83;3.53;;;;;;;;;;5069997;28;20286;-75
2022/01/01 11:27:08;;;;;;;2.93;2.73;;;;;;;;;;5069300;28;20222;-75
2022/01/01 11:29:56;;;;;;;4.03;3.20;;;;;;;;;;5068865;28;20213;-74
2022/01/01 11:32:46;;;;;;;2.83;2.63;;;;;;;;;;5060529;28;20222;-75
2022/01/01 11:35:36;;;;;;;3.23;2.80;;;;;;;;;;5068828;28;20236;-75
2022/01/01 11:38:25;;;;;;;3.23;2.80;;;;;;;;;;5069961;28;20208;-75
2022/01/01 11:41:14;;;;;;;2.70;2.60;;;;;;;;;;5068080;28;20288;-74
2022/01/01 11:44:01;;;;;;;2.70;2.50;;;;;;;;;;5068116;28;20213;-75
2022/01/01 11:46:57;;;;;;;3.03;2.73;;;;;;;;;;5058522;28;20232;-76
2022/01/01 11:49:44;;;;;;;2.80;2.60;;;;;;;;;;5068601;28;20213;-74
2022/01/01 11:52:41;;;;;;;3.87;2.37;;;;;;;;;;5068118;28;20209;-73
2022/01/01 11:55:28;;;;;;;2.87;2.67;;;;;;;;;;5054031;28;20236;-75
2022/01/01 11:58:15;;;;;;;2.37;2.20;;;;;;;;;;5067721;28;20295;-74
2022/01/01 12:01:10;;;;;;;2.30;2.20;;;;;;;;;;5069583;28;20309;-76
2022/01/01 12:03:57;;;;;;;2.63;2.50;;;;;;;;;;5069703;28;20704;-75
2022/01/01 12:06:44;;;;;;;2.60;2.40;;;;;;;;;;5067218;28;20302;-75
2022/01/01 12:09:48;;;;;;;3.00;2.40;;;;;;;;;;5067923;28;20255;-75
2022/01/01 12:12:36;;;;;;;2.30;2.20;;;;;;;;;;5068416;28;20212;-75
2022/01/01 12:15:28;;;;;;;2.60;2.50;;;;;;;;;;5069119;28;20250;-75
2022/01/01 12:18:16;;;;;;;2.10;2.00;;;;;;;;;;5069396;28;20212;-75
2022/01/01 12:21:04;;;;;;;2.57;2.40;;;;;;;;;;5067976;28;20234;-75
2022/01/01 12:23:54;;;;;;;2.07;1.97;;;;;;;;;;5069150;28;20659;-75
2022/01/01 12:26:51;;;;;;;2.30;2.20;;;;;;;;;;5068562;28;20221;-73
2022/01/01 12:29:38;;;;;;;2.00;1.90;;;;;;;;;;5068831;28;20213;-75
2022/01/01 12:32:38;;;;;;;2.30;2.10;;;;;;;;;;5067856;28;20638;-75
2022/01/01 12:35:39;;;;;;;2.10;2.00;;;;;;;;;;5068590;28;20212;-75
2022/01/01 12:38:28;;;;;;;2.17;2.03;;;;;;;;;;5067677;28;20686;-75
2022/01/01 12:41:16;;;;;;;2.07;1.87;;;;;;;;;;5066658;28;20216;-75
2022/01/01 12:44:06;;;;;;;1.90;1.80;;;;;;;;;;5068103;28;20212;-75
2022/01/01 12:46:57;;;;;;;3.90;2.03;;;;;;;;;;5064040;28;20306;-75
2022/01/01 12:49:45;;;;;;;2.23;2.13;;;;;;;;;;5066643;28;20230;-75
2022/01/01 12:52:32;;;;;;;2.20;2.10;;;;;;;;;;5068119;28;20209;-75
2022/01/01 12:55:23;;;;;;;2.17;2.07;;;;;;;;;;5067996;28;20209;-74
2022/01/01 12:58:10;;;;;;;2.87;2.37;;;;;;;;;;5067969;28;20208;-75
2022/01/01 13:01:08;;;;;;;2.37;2.27;;;;;;;;;;5067784;28;20268;-75
2022/01/01 13:03:56;;;;;;;2.30;2.20;;;;;;;;;;5067053;28;20618;-74
2022/01/01 13:06:46;;;;;;;2.60;2.40;;;;;;;;;;5066972;28;20282;-74
2022/01/01 13:09:33;;;;;;;2.70;2.50;;;;;;;;;;5067219;28;20633;-75
2022/01/01 13:12:21;;;;;;;2.30;2.20;;;;;;;;;;5061468;28;20212;-75
2022/01/01 13:15:09;;;;;;;2.40;2.30;;;;;;;;;;5064938;28;20205;-75
2022/01/01 13:18:00;;;;;;;2.27;2.17;;;;;;;;;;5066674;28;20704;-75
2022/01/01 13:20:47;;;;;;;2.60;2.47;;;;;;;;;;5067093;28;20211;-75
2022/01/01 13:23:35;;;;;;;2.43;2.27;;;;;;;;;;5064425;28;20211;-76
2022/01/01 13:26:22;;;;;;;2.80;2.60;;;;;;;;;;5067126;28;20245;-76
2022/01/01 13:29:09;;;;;;;2.87;2.67;;;;;;;;;;5066895;28;20577;-74
2022/01/01 13:31:58;;;;;;;2.57;2.47;;;;;;;;;;5063448;28;20277;-75
2022/01/01 13:34:51;;;;;;;2.97;2.77;;;;;;;;;;5065550;28;20694;-71
2022/01/01 13:37:42;;;;;;;2.60;2.50;;;;;;;;;;5064105;28;20204;-75
2022/01/01 13:40:29;;;;;;;2.83;2.63;;;;;;;;;;5060349;28;20302;-75
2022/01/01 13:43:16;;;;;;;3.67;2.97;;;;;;;;;;5066563;28;20207;-75
2022/01/01 13:46:12;;;;;;;2.47;2.37;;;;;;;;;;5067037;28;20612;-76
2022/01/01 13:48:59;;;;;;;2.57;2.37;;;;;;;;;;5067962;28;20817;-75
2022/01/01 13:51:57;;;;;;;2.90;2.70;;;;;;;;;;5066177;28;20216;-75
2022/01/01 13:54:44;;;;;;;2.77;2.57;;;;;;;;;;5055983;28;20204;-73
2022/01/01 13:57:31;;;;;;;2.63;2.43;;;;;;;;;;5067549;28;20660;-75
2022/01/01 14:00:19;;;;;;;2.70;2.50;;;;;;;;;;5066954;28;20231;-75
2022/01/01 14:03:06;;;;;;;2.40;2.27;;;;;;;;;;5067166;28;20241;-72
2022/01/01 14:05:54;;;;;;;2.50;2.30;;;;;;;;;;5062381;28;20619;-74
2022/01/01 14:09:00;;;;;;;2.30;2.20;;;;;;;;;;5060297;28;20207;-76
2022/01/01 14:11:47;;;;;;;2.10;2.00;;;;;;;;;;5070835;28;20210;-75
2022/01/01 14:14:34;;;;;;;2.00;1.90;;;;;;;;;;5070007;28;20828;-74
2022/01/01 14:17:21;;;;;;;2.43;2.23;;;;;;;;;;5071508;28;20669;-76
2022/01/01 14:20:21;;;;;;;1.97;1.87;;;;;;;;;;5069586;28;20246;-74
2022/01/01 14:23:08;;;;;;;2.73;1.90;;;;;;;;;;5070522;28;20286;-75
2022/01/01 14:25:58;;;;;;;1.90;1.80;;;;;;;;;;5071797;28;20222;-74
2022/01/01 14:28:48;;;;;;;2.03;1.93;;;;;;;;;;5069734;28;20254;-74
2022/01/01 14:31:35;;;;;;;1.90;1.80;;;;;;;;;;5071232;28;20302;-75
2022/01/01 14:34:22;;;;;;;1.93;1.83;;;;;;;;;;5071736;28;20235;-76
2022/01/01 14:37:09;;;;;;;2.00;1.73;;;;;;;;;;5069435;28;20248;-76
2022/01/01 14:39:57;;;;;;;2.07;1.97;;;;;;;;;;5070731;28;20201;-76
2022/01/01 14:42:45;;;;;;;1.90;1.80;;;;;;;;;;5064333;28;20660;-75
2022/01/01 14:45:35;;;;;;;1.70;1.60;;;;;;;;;;5063540;28;20671;-73
2022/01/01 14:48:31;;;;;;;1.67;1.53;;;;;;;;;;5070471;28;20214;-75
2022/01/01 14:51:25;;;;;;;1.90;1.80;;;;;;;;;;5070074;28;20361;-75
2022/01/01 14:54:28;;;;;;;2.03;1.80;;;;;;;;;;5071095;28;20220;-76
2022/01/01 14:57:19;;;;;;;1.50;1.40;;;;;;;;;;5070130;28;20199;-75
2022/01/01 15:00:09;;;;;;;1.50;1.40;;;;;;;;;;5068906;28;20340;-75
2022/01/01 15:02:56;;;;;;;1.40;1.30;;;;;;;;;;5069377;28;20313;-75
2022/01/01 15:05:43;;;;;;;1.77;1.50;;;;;;;;;;5068907;28;20227;-76
2022/01/01 15:08:34;;;;;;;1.37;1.27;;;;;;;;;;5068854;28;20248;-76
2022/01/01 15:11:21;;;;;;;1.30;1.30;;;;;;;;;;5070337;28;20253;-76
2022/01/01 15:14:09;;;;;;;1.70;1.60;;;;;;;;;;5070193;28;20288;-76
2022/01/01 15:16:59;;;;;;;1.57;1.40;;;;;;;;;;5070267;28;20214;-75
2022/01/01 15:19:47;;;;;;;1.27;1.23;;;;;;;;;;5067855;28;20356;-75
2022/01/01 15:22:39;;;;;;;1.73;1.40;;;;;;;;;;5068969;28;20572;-75
2022/01/01 15:25:28;;;;;;;1.67;1.57;;;;;;;;;;5069440;28;20229;-73
2022/01/01 15:28:19;;;;;;;1.33;1.23;;;;;;;;;;5069841;28;20315;-75
2022/01/01 15:31:12;;;;;;;1.53;1.43;;;;;;;;;;5069420;28;20208;-75
2022/01/01 15:34:04;;;;;;;1.50;1.40;;;;;;;;;;5068868;28;20734;-72
2022/01/01 15:36:52;;;;;;;1.20;1.20;;;;;;;;;;5067844;28;20210;-73
2022/01/01 15:39:42;;;;;;;1.47;1.37;;;;;;;;;;5056116;28;20204;-75
2022/01/01 15:42:29;;;;;;;0.90;0.90;;;;;;;;;;5062496;28;20207;-75
2022/01/01 15:45:16;;;;;;;1.20;1.20;;;;;;;;;;5068583;28;20208;-75
2022/01/01 15:48:03;;;;;;;1.53;1.10;;;;;;;;;;5067154;28;20223;-74
2022/01/01 15:50:52;;;;;;;1.40;1.30;;;;;;;;;;5068686;28;20713;-74
2022/01/01 15:53:42;;;;;;;1.33;1.23;;;;;;;;;;5069594;28;20588;-75
2022/01/01 15:56:35;;;;;;;1.40;1.30;;;;;;;;;;5068885;28;20204;-75
2022/01/01 15:59:25;;;;;;;0.97;0.97;;;;;;;;;;5068699;28;20231;-75
2022/01/01 16:02:38;;;;;;;1.20;1.20;;;;;;;;;;5069419;28;20591;-75
2022/01/01 16:05:43;;;;;;;1.27;1.20;;;;;;;;;;5065617;28;20951;-75
2022/01/01 16:08:35;;;;;;;1.73;1.63;;;;;;;;;;5067974;28;20327;-75
2022/01/01 16:11:23;;;;;;;1.40;1.30;;;;;;;;;;5066729;28;20211;-75
2022/01/01 16:14:14;;;;;;;1.57;1.40;;;;;;;;;;5068622;28;20211;-75
2022/01/01 16:17:03;;;;;;;1.33;1.23;;;;;;;;;;5067823;28;20227;-74
2022/01/01 16:19:51;;;;;;;1.30;1.20;;;;;;;;;;5069238;28;20663;-74
2022/01/01 16:22:39;;;;;;;1.40;1.30;;;;;;;;;;5067088;28;20218;-75
2022/01/01 16:25:30;;;;;;;1.30;1.20;;;;;;;;;;5068319;28;20265;-74
2022/01/01 16:28:18;;;;;;;1.60;1.50;;;;;;;;;;5067282;28;20273;-74
2022/01/01 16:31:05;;;;;;;1.77;1.60;;;;;;;;;;5067266;28;20206;-73
2022/01/01 16:33:53;;;;;;;1.60;1.50;;;;;;;;;;5070061;28;20207;-74
2022/01/01 16:36:40;;;;;;;1.33;1.23;;;;;;;;;;5066976;28;20212;-75
2022/01/01 16:39:27;;;;;;;1.07;1.07;;;;;;;;;;5064126;28;20698;-73
2022/01/01 16:42:19;;;;;;;1.03;1.03;;;;;;;;;;5066954;28;20689;-75
2022/01/01 16:45:08;;;;;;;1.17;1.13;;;;;;;;;;5066588;28;20282;-75
2022/01/01 16:48:05;;;;;;;1.30;1.20;;;;;;;;;;5068117;28;20252;-75
2022/01/01 16:50:57;;;;;;;1.30;1.30;;;;;;;;;;5068341;28;20204;-76